sensor_id;sensor_type;location;lat;lon;timestamp;temperature;humidity
16999;DHT22;10211;49.476;11.010;2023-07-20T00:00:01;17.70;99.90
16999;DHT22;10211;49.476;11.010;2023-07-20T00:02:28;17.80;99.90
16999;DHT22;10211;49.476;11.010;2023-07-20T00:04:54;17.70;99.90
16999;DHT22;10211;49.476;11.010;2023-07-20T00:07:21;17.70;99.90
16999;DHT22;10211;49.476;11.010;2023-07-20T00:09:49;17.70;99.90
16999;DHT22;10211;49.476;11.010;2023-07-20T00:12:16;17.70;99.90
16999;DHT22;10211;49.476;11.010;2023-07-20T00:14:43;17.60;99.90
16999;DHT22;10211;49.476;11.010;2023-07-20T00:17:09;18.20;99.90
16999;DHT22;10211;49.476;11.010;2023-07-20T00:19:36;17.60;99.90
16999;DHT22;10211;49.476;11.010;2023-07-20T00:22:03;17.60;99.90
16999;DHT22;10211;49.476;11.010;2023-07-20T00:24:30;17.60;99.90
16999;DHT22;10211;49.476;11.010;2023-07-20T00:26:59;17.60;99.90
16999;DHT22;10211;49.476;11.010;2023-07-20T00:29:28;17.60;99.90
16999;DHT22;10211;49.476;11.010;2023-07-20T00:31:54;17.60;99.90
16999;DHT22;10211;49.476;11.010;2023-07-20T00:34:21;17.60;99.90
16999;DHT22;10211;49.476;11.010;2023-07-20T00:36:48;17.60;99.90
16999;DHT22;10211;49.476;11.010;2023-07-20T00:39:15;17.60;99.90
16999;DHT22;10211;49.476;11.010;2023-07-20T00:41:42;17.60;99.90
16999;DHT22;10211;49.476;11.010;2023-07-20T00:44:10;17.60;99.90
16999;DHT22;10211;49.476;11.010;2023-07-20T00:46:36;17.50;99.90
16999;DHT22;10211;49.476;11.010;2023-07-20T00:49:03;17.40;99.90
16999;DHT22;10211;49.476;11.010;2023-07-20T00:51:31;17.30;99.90
16999;DHT22;10211;49.476;11.010;2023-07-20T00:53:58;17.30;99.90
16999;DHT22;10211;49.476;11.010;2023-07-20T00:56:25;17.20;99.90
16999;DHT22;10211;49.476;11.010;2023-07-20T00:58:52;17.10;99.90
16999;DHT22;10211;49.476;11.010;2023-07-20T01:01:21;17.10;99.90
16999;DHT22;10211;49.476;11.010;2023-07-20T01:03:48;17.10;99.90
16999;DHT22;10211;49.476;11.010;2023-07-20T01:06:22;17.10;99.90
16999;DHT22;10211;49.476;11.010;2023-07-20T01:08:58;17.10;99.90
16999;DHT22;10211;49.476;11.010;2023-07-20T01:11:33;17.10;99.90
16999;DHT22;10211;49.476;11.010;2023-07-20T01:14:03;17.10;99.90
16999;DHT22;10211;49.476;11.010;2023-07-20T01:16:31;17.20;99.90
16999;DHT22;10211;49.476;11.010;2023-07-20T01:18:59;17.10;99.90
16999;DHT22;10211;49.476;11.010;2023-07-20T01:21:28;17.10;99.90
16999;DHT22;10211;49.476;11.010;2023-07-20T01:24:18;17.10;99.90
16999;DHT22;10211;49.476;11.010;2023-07-20T01:27:00;17.00;99.90
16999;DHT22;10211;49.476;11.010;2023-07-20T01:29:44;17.00;99.90
16999;DHT22;10211;49.476;11.010;2023-07-20T01:32:17;17.00;99.90
16999;DHT22;10211;49.476;11.010;2023-07-20T01:34:45;17.00;99.90
16999;DHT22;10211;49.476;11.010;2023-07-20T01:37:15;17.00;99.90
16999;DHT22;10211;49.476;11.010;2023-07-20T01:39:45;17.00;99.90
16999;DHT22;10211;49.476;11.010;2023-07-20T01:42:12;17.00;99.90
16999;DHT22;10211;49.476;11.010;2023-07-20T01:44:39;17.00;99.90
16999;DHT22;10211;49.476;11.010;2023-07-20T01:47:06;17.00;99.90
16999;DHT22;10211;49.476;11.010;2023-07-20T01:49:34;16.90;99.90
16999;DHT22;10211;49.476;11.010;2023-07-20T01:52:01;16.90;99.90
16999;DHT22;10211;49.476;11.010;2023-07-20T01:54:27;16.80;99.90
16999;DHT22;10211;49.476;11.010;2023-07-20T01:56:54;16.80;99.90
16999;DHT22;10211;49.476;11.010;2023-07-20T01:59:21;16.80;99.90
16999;DHT22;10211;49.476;11.010;2023-07-20T02:01:47;16.80;99.90
16999;DHT22;10211;49.476;11.010;2023-07-20T02:04:14;16.90;99.90
16999;DHT22;10211;49.476;11.010;2023-07-20T02:06:42;16.90;99.90
16999;DHT22;10211;49.476;11.010;2023-07-20T02:09:09;16.90;99.90
16999;DHT22;10211;49.476;11.010;2023-07-20T02:11:36;17.00;99.90
16999;DHT22;10211;49.476;11.010;2023-07-20T02:14:02;17.00;99.90
16999;DHT22;10211;49.476;11.010;2023-07-20T02:16:29;17.00;99.90
16999;DHT22;10211;49.476;11.010;2023-07-20T02:18:56;17.00;99.90
16999;DHT22;10211;49.476;11.010;2023-07-20T02:21:23;17.00;99.90
16999;DHT22;10211;49.476;11.010;2023-07-20T02:23:51;17.00;99.90
16999;DHT22;10211;49.476;11.010;2023-07-20T02:26:18;17.00;99.90
16999;DHT22;10211;49.476;11.010;2023-07-20T02:28:45;17.00;99.90
16999;DHT22;10211;49.476;11.010;2023-07-20T02:31:11;17.00;99.90
16999;DHT22;10211;49.476;11.010;2023-07-20T02:33:38;17.10;99.90
16999;DHT22;10211;49.476;11.010;2023-07-20T02:36:05;17.10;99.90
16999;DHT22;10211;49.476;11.010;2023-07-20T02:38:31;17.10;99.90
16999;DHT22;10211;49.476;11.010;2023-07-20T02:40:59;17.10;99.90
16999;DHT22;10211;49.476;11.010;2023-07-20T02:43:26;17.10;99.90
16999;DHT22;10211;49.476;11.010;2023-07-20T02:45:53;17.20;99.90
16999;DHT22;10211;49.476;11.010;2023-07-20T02:48:20;17.20;99.90
16999;DHT22;10211;49.476;11.010;2023-07-20T02:50:46;17.20;99.90
16999;DHT22;10211;49.476;11.010;2023-07-20T02:53:13;17.20;99.90
16999;DHT22;10211;49.476;11.010;2023-07-20T02:55:40;17.20;99.90
16999;DHT22;10211;49.476;11.010;2023-07-20T02:58:08;17.30;99.90
16999;DHT22;10211;49.476;11.010;2023-07-20T03:00:35;17.20;99.90
16999;DHT22;10211;49.476;11.010;2023-07-20T03:03:02;17.20;99.90
16999;DHT22;10211;49.476;11.010;2023-07-20T03:05:28;17.10;99.90
16999;DHT22;10211;49.476;11.010;2023-07-20T03:07:55;17.10;99.90
16999;DHT22;10211;49.476;11.010;2023-07-20T03:10:22;17.00;99.90
16999;DHT22;10211;49.476;11.010;2023-07-20T03:12:49;17.10;99.90
16999;DHT22;10211;49.476;11.010;2023-07-20T03:15:17;16.80;99.90
16999;DHT22;10211;49.476;11.010;2023-07-20T03:17:43;16.70;99.90
16999;DHT22;10211;49.476;11.010;2023-07-20T03:20:11;16.60;99.90
16999;DHT22;10211;49.476;11.010;2023-07-20T03:22:38;16.60;99.90
16999;DHT22;10211;49.476;11.010;2023-07-20T03:25:05;16.50;99.90
16999;DHT22;10211;49.476;11.010;2023-07-20T03:27:32;16.50;99.90
16999;DHT22;10211;49.476;11.010;2023-07-20T03:29:59;16.50;99.90
16999;DHT22;10211;49.476;11.010;2023-07-20T03:32:27;16.70;99.90
16999;DHT22;10211;49.476;11.010;2023-07-20T03:34:54;16.40;99.90
16999;DHT22;10211;49.476;11.010;2023-07-20T03:37:20;16.40;99.90
16999;DHT22;10211;49.476;11.010;2023-07-20T03:39:47;16.40;99.90
16999;DHT22;10211;49.476;11.010;2023-07-20T03:42:14;16.40;99.90
16999;DHT22;10211;49.476;11.010;2023-07-20T03:44:41;16.40;99.90
16999;DHT22;10211;49.476;11.010;2023-07-20T03:47:07;16.40;99.90
16999;DHT22;10211;49.476;11.010;2023-07-20T03:49:36;16.50;99.90
16999;DHT22;10211;49.476;11.010;2023-07-20T03:52:03;16.50;99.90
16999;DHT22;10211;49.476;11.010;2023-07-20T03:54:30;16.60;99.90
16999;DHT22;10211;49.476;11.010;2023-07-20T03:56:56;16.60;99.90
16999;DHT22;10211;49.476;11.010;2023-07-20T03:59:23;16.60;99.90
16999;DHT22;10211;49.476;11.010;2023-07-20T04:01:50;16.60;99.90
16999;DHT22;10211;49.476;11.010;2023-07-20T04:04:17;16.70;99.90
16999;DHT22;10211;49.476;11.010;2023-07-20T04:06:45;16.70;99.90
16999;DHT22;10211;49.476;11.010;2023-07-20T04:09:12;16.70;99.90
16999;DHT22;10211;49.476;11.010;2023-07-20T04:11:38;16.70;99.90
16999;DHT22;10211;49.476;11.010;2023-07-20T04:14:06;16.70;99.90
16999;DHT22;10211;49.476;11.010;2023-07-20T04:16:32;16.90;99.90
16999;DHT22;10211;49.476;11.010;2023-07-20T04:18:59;16.80;99.90
16999;DHT22;10211;49.476;11.010;2023-07-20T04:21:27;16.80;99.90
16999;DHT22;10211;49.476;11.010;2023-07-20T04:23:55;16.80;99.90
16999;DHT22;10211;49.476;11.010;2023-07-20T04:26:22;16.80;99.90
16999;DHT22;10211;49.476;11.010;2023-07-20T04:28:49;16.80;99.90
16999;DHT22;10211;49.476;11.010;2023-07-20T04:31:17;17.00;99.90
16999;DHT22;10211;49.476;11.010;2023-07-20T04:33:43;17.00;99.90
16999;DHT22;10211;49.476;11.010;2023-07-20T04:36:11;17.00;99.90
16999;DHT22;10211;49.476;11.010;2023-07-20T04:38:40;17.00;99.90
16999;DHT22;10211;49.476;11.010;2023-07-20T04:41:08;17.10;99.90
16999;DHT22;10211;49.476;11.010;2023-07-20T04:43:35;17.10;99.90
16999;DHT22;10211;49.476;11.010;2023-07-20T04:46:02;17.20;99.90
16999;DHT22;10211;49.476;11.010;2023-07-20T04:48:28;17.20;99.90
16999;DHT22;10211;49.476;11.010;2023-07-20T04:50:55;17.20;99.90
16999;DHT22;10211;49.476;11.010;2023-07-20T04:53:22;17.20;99.90
16999;DHT22;10211;49.476;11.010;2023-07-20T04:55:49;17.30;99.90
16999;DHT22;10211;49.476;11.010;2023-07-20T04:58:21;17.30;99.90
16999;DHT22;10211;49.476;11.010;2023-07-20T05:00:48;17.30;99.90
16999;DHT22;10211;49.476;11.010;2023-07-20T05:03:15;17.30;99.90
16999;DHT22;10211;49.476;11.010;2023-07-20T05:05:42;17.40;99.90
16999;DHT22;10211;49.476;11.010;2023-07-20T05:08:09;17.50;99.90
16999;DHT22;10211;49.476;11.010;2023-07-20T05:10:36;17.60;99.90
16999;DHT22;10211;49.476;11.010;2023-07-20T05:13:02;17.50;99.90
16999;DHT22;10211;49.476;11.010;2023-07-20T05:15:32;17.40;99.90
16999;DHT22;10211;49.476;11.010;2023-07-20T05:17:59;17.30;99.90
16999;DHT22;10211;49.476;11.010;2023-07-20T05:20:26;17.30;99.90
16999;DHT22;10211;49.476;11.010;2023-07-20T05:22:52;17.30;99.90
16999;DHT22;10211;49.476;11.010;2023-07-20T05:25:19;17.20;99.90
16999;DHT22;10211;49.476;11.010;2023-07-20T05:27:48;17.20;99.90
16999;DHT22;10211;49.476;11.010;2023-07-20T05:30:16;17.20;99.90
16999;DHT22;10211;49.476;11.010;2023-07-20T05:32:44;17.20;99.90
16999;DHT22;10211;49.476;11.010;2023-07-20T05:35:13;17.20;99.90
16999;DHT22;10211;49.476;11.010;2023-07-20T05:37:41;17.30;99.90
16999;DHT22;10211;49.476;11.010;2023-07-20T05:40:08;17.40;99.90
16999;DHT22;10211;49.476;11.010;2023-07-20T05:42:37;17.40;99.90
16999;DHT22;10211;49.476;11.010;2023-07-20T05:45:05;17.40;99.90
16999;DHT22;10211;49.476;11.010;2023-07-20T05:47:31;17.50;99.90
16999;DHT22;10211;49.476;11.010;2023-07-20T05:50:00;17.70;99.90
16999;DHT22;10211;49.476;11.010;2023-07-20T05:52:26;18.00;99.90
16999;DHT22;10211;49.476;11.010;2023-07-20T05:54:53;18.50;99.90
16999;DHT22;10211;49.476;11.010;2023-07-20T05:57:20;19.00;99.90
16999;DHT22;10211;49.476;11.010;2023-07-20T05:59:46;19.40;99.90
16999;DHT22;10211;49.476;11.010;2023-07-20T06:02:13;19.40;99.90
16999;DHT22;10211;49.476;11.010;2023-07-20T06:04:40;19.00;99.90
16999;DHT22;10211;49.476;11.010;2023-07-20T06:07:08;18.80;99.90
16999;DHT22;10211;49.476;11.010;2023-07-20T06:09:35;18.60;99.90
16999;DHT22;10211;49.476;11.010;2023-07-20T06:12:02;18.40;99.90
16999;DHT22;10211;49.476;11.010;2023-07-20T06:14:28;18.40;99.90
16999;DHT22;10211;49.476;11.010;2023-07-20T06:16:55;18.40;99.90
16999;DHT22;10211;49.476;11.010;2023-07-20T06:19:22;18.50;99.90
16999;DHT22;10211;49.476;11.010;2023-07-20T06:21:49;18.50;99.90
16999;DHT22;10211;49.476;11.010;2023-07-20T06:24:17;18.60;99.90
16999;DHT22;10211;49.476;11.010;2023-07-20T06:26:44;18.50;99.90
16999;DHT22;10211;49.476;11.010;2023-07-20T06:29:10;18.50;99.90
16999;DHT22;10211;49.476;11.010;2023-07-20T06:31:37;18.60;99.90
16999;DHT22;10211;49.476;11.010;2023-07-20T06:34:04;18.60;99.90
16999;DHT22;10211;49.476;11.010;2023-07-20T06:36:31;18.70;99.90
16999;DHT22;10211;49.476;11.010;2023-07-20T06:38:57;18.70;99.90
16999;DHT22;10211;49.476;11.010;2023-07-20T06:41:25;18.70;99.90
16999;DHT22;10211;49.476;11.010;2023-07-20T06:43:52;18.70;99.90
16999;DHT22;10211;49.476;11.010;2023-07-20T06:46:23;19.00;99.90
16999;DHT22;10211;49.476;11.010;2023-07-20T06:48:50;19.00;99.90
16999;DHT22;10211;49.476;11.010;2023-07-20T06:51:17;19.00;99.90
16999;DHT22;10211;49.476;11.010;2023-07-20T06:53:44;19.10;99.90
16999;DHT22;10211;49.476;11.010;2023-07-20T06:56:11;19.20;99.90
16999;DHT22;10211;49.476;11.010;2023-07-20T06:58:40;19.50;99.90
16999;DHT22;10211;49.476;11.010;2023-07-20T07:01:08;19.80;99.90
16999;DHT22;10211;49.476;11.010;2023-07-20T07:03:34;19.90;99.90
16999;DHT22;10211;49.476;11.010;2023-07-20T07:06:02;19.90;99.90
16999;DHT22;10211;49.476;11.010;2023-07-20T07:08:29;20.00;99.90
16999;DHT22;10211;49.476;11.010;2023-07-20T07:10:55;20.10;99.90
16999;DHT22;10211;49.476;11.010;2023-07-20T07:13:22;20.30;99.90
16999;DHT22;10211;49.476;11.010;2023-07-20T07:15:51;20.50;99.90
16999;DHT22;10211;49.476;11.010;2023-07-20T07:18:18;20.80;99.90
16999;DHT22;10211;49.476;11.010;2023-07-20T07:20:51;21.30;99.90
16999;DHT22;10211;49.476;11.010;2023-07-20T07:23:17;21.70;99.90
16999;DHT22;10211;49.476;11.010;2023-07-20T07:25:45;21.30;99.90
16999;DHT22;10211;49.476;11.010;2023-07-20T07:28:11;20.80;99.90
16999;DHT22;10211;49.476;11.010;2023-07-20T07:30:38;20.70;99.90
16999;DHT22;10211;49.476;11.010;2023-07-20T07:33:06;20.60;99.90
16999;DHT22;10211;49.476;11.010;2023-07-20T07:35:34;20.30;99.90
16999;DHT22;10211;49.476;11.010;2023-07-20T07:38:00;20.30;99.90
16999;DHT22;10211;49.476;11.010;2023-07-20T07:40:27;20.40;99.90
16999;DHT22;10211;49.476;11.010;2023-07-20T07:42:54;20.70;99.90
16999;DHT22;10211;49.476;11.010;2023-07-20T07:45:20;20.90;99.90
16999;DHT22;10211;49.476;11.010;2023-07-20T07:47:47;22.10;99.90
16999;DHT22;10211;49.476;11.010;2023-07-20T07:50:15;22.20;99.90
16999;DHT22;10211;49.476;11.010;2023-07-20T07:52:42;22.40;99.90
16999;DHT22;10211;49.476;11.010;2023-07-20T07:55:09;22.50;99.90
16999;DHT22;10211;49.476;11.010;2023-07-20T07:57:35;22.60;99.90
16999;DHT22;10211;49.476;11.010;2023-07-20T08:00:03;22.70;99.90
16999;DHT22;10211;49.476;11.010;2023-07-20T08:02:30;22.90;99.50
16999;DHT22;10211;49.476;11.010;2023-07-20T08:04:57;22.70;99.90
16999;DHT22;10211;49.476;11.010;2023-07-20T08:07:25;22.10;99.30
16999;DHT22;10211;49.476;11.010;2023-07-20T08:09:52;21.80;99.90
16999;DHT22;10211;49.476;11.010;2023-07-20T08:12:18;21.70;99.90
16999;DHT22;10211;49.476;11.010;2023-07-20T08:14:45;21.80;99.90
16999;DHT22;10211;49.476;11.010;2023-07-20T08:17:12;21.90;99.90
16999;DHT22;10211;49.476;11.010;2023-07-20T08:19:39;21.80;99.90
16999;DHT22;10211;49.476;11.010;2023-07-20T08:22:07;21.60;99.90
16999;DHT22;10211;49.476;11.010;2023-07-20T08:24:39;21.10;99.90
16999;DHT22;10211;49.476;11.010;2023-07-20T08:27:06;20.90;99.90
16999;DHT22;10211;49.476;11.010;2023-07-20T08:29:33;21.00;99.90
16999;DHT22;10211;49.476;11.010;2023-07-20T08:32:00;21.20;99.90
16999;DHT22;10211;49.476;11.010;2023-07-20T08:34:27;21.40;99.90
16999;DHT22;10211;49.476;11.010;2023-07-20T08:36:54;21.70;99.30
16999;DHT22;10211;49.476;11.010;2023-07-20T08:39:21;22.10;99.90
16999;DHT22;10211;49.476;11.010;2023-07-20T08:41:50;22.20;98.30
16999;DHT22;10211;49.476;11.010;2023-07-20T08:44:17;22.20;96.30
16999;DHT22;10211;49.476;11.010;2023-07-20T08:46:44;22.20;96.80
16999;DHT22;10211;49.476;11.010;2023-07-20T08:49:12;22.30;96.90
16999;DHT22;10211;49.476;11.010;2023-07-20T08:51:39;22.50;95.50
16999;DHT22;10211;49.476;11.010;2023-07-20T08:54:08;22.50;94.70
16999;DHT22;10211;49.476;11.010;2023-07-20T08:56:36;22.50;95.50
16999;DHT22;10211;49.476;11.010;2023-07-20T08:59:05;22.80;94.10
16999;DHT22;10211;49.476;11.010;2023-07-20T09:01:32;22.80;94.50
16999;DHT22;10211;49.476;11.010;2023-07-20T09:04:00;22.90;94.40
16999;DHT22;10211;49.476;11.010;2023-07-20T09:06:27;23.00;95.10
16999;DHT22;10211;49.476;11.010;2023-07-20T09:08:54;23.00;93.40
16999;DHT22;10211;49.476;11.010;2023-07-20T09:11:22;22.80;92.80
16999;DHT22;10211;49.476;11.010;2023-07-20T09:14:02;22.60;92.80
16999;DHT22;10211;49.476;11.010;2023-07-20T09:16:30;22.60;94.10
16999;DHT22;10211;49.476;11.010;2023-07-20T09:18:58;22.70;93.70
16999;DHT22;10211;49.476;11.010;2023-07-20T09:21:29;23.10;92.70
16999;DHT22;10211;49.476;11.010;2023-07-20T09:23:56;23.30;91.50
16999;DHT22;10211;49.476;11.010;2023-07-20T09:26:23;23.00;91.30
16999;DHT22;10211;49.476;11.010;2023-07-20T09:28:52;22.90;91.40
16999;DHT22;10211;49.476;11.010;2023-07-20T09:31:21;22.80;91.20
16999;DHT22;10211;49.476;11.010;2023-07-20T09:33:51;22.90;91.10
16999;DHT22;10211;49.476;11.010;2023-07-20T09:36:19;23.40;90.20
16999;DHT22;10211;49.476;11.010;2023-07-20T09:38:46;23.60;88.90
16999;DHT22;10211;49.476;11.010;2023-07-20T09:41:14;23.60;89.00
16999;DHT22;10211;49.476;11.010;2023-07-20T09:43:42;23.70;88.30
16999;DHT22;10211;49.476;11.010;2023-07-20T09:46:09;24.00;86.20
16999;DHT22;10211;49.476;11.010;2023-07-20T09:48:36;23.70;84.60
16999;DHT22;10211;49.476;11.010;2023-07-20T09:51:05;23.40;85.80
16999;DHT22;10211;49.476;11.010;2023-07-20T09:53:33;25.80;83.10
16999;DHT22;10211;49.476;11.010;2023-07-20T09:56:00;29.00;74.30
16999;DHT22;10211;49.476;11.010;2023-07-20T09:58:29;32.10;65.30
16999;DHT22;10211;49.476;11.010;2023-07-20T10:00:57;34.00;56.00
16999;DHT22;10211;49.476;11.010;2023-07-20T10:03:29;33.70;53.70
16999;DHT22;10211;49.476;11.010;2023-07-20T10:05:59;34.00;50.20
16999;DHT22;10211;49.476;11.010;2023-07-20T10:08:29;35.60;49.20
16999;DHT22;10211;49.476;11.010;2023-07-20T10:10:58;33.40;49.30
16999;DHT22;10211;49.476;11.010;2023-07-20T10:13:26;31.10;53.20
16999;DHT22;10211;49.476;11.010;2023-07-20T10:15:54;31.10;53.00
16999;DHT22;10211;49.476;11.010;2023-07-20T10:18:28;32.30;53.10
16999;DHT22;10211;49.476;11.010;2023-07-20T10:20:57;34.20;50.50
16999;DHT22;10211;49.476;11.010;2023-07-20T10:23:28;36.20;48.70
16999;DHT22;10211;49.476;11.010;2023-07-20T10:25:55;36.90;45.70
16999;DHT22;10211;49.476;11.010;2023-07-20T10:28:23;37.30;44.10
16999;DHT22;10211;49.476;11.010;2023-07-20T10:30:50;37.40;43.70
16999;DHT22;10211;49.476;11.010;2023-07-20T10:33:17;37.40;42.70
16999;DHT22;10211;49.476;11.010;2023-07-20T10:35:55;37.40;43.30
16999;DHT22;10211;49.476;11.010;2023-07-20T10:38:42;38.30;42.10
16999;DHT22;10211;49.476;11.010;2023-07-20T10:41:19;38.10;41.90
16999;DHT22;10211;49.476;11.010;2023-07-20T10:43:46;38.40;41.80
16999;DHT22;10211;49.476;11.010;2023-07-20T10:46:13;39.20;42.00
16999;DHT22;10211;49.476;11.010;2023-07-20T10:48:59;40.60;39.80
16999;DHT22;10211;49.476;11.010;2023-07-20T10:51:27;38.90;40.20
16999;DHT22;10211;49.476;11.010;2023-07-20T10:53:56;38.40;41.30
16999;DHT22;10211;49.476;11.010;2023-07-20T10:56:26;39.10;40.20
16999;DHT22;10211;49.476;11.010;2023-07-20T10:58:58;38.80;37.60
16999;DHT22;10211;49.476;11.010;2023-07-20T11:01:28;39.00;38.10
16999;DHT22;10211;49.476;11.010;2023-07-20T11:03:57;38.30;37.90
16999;DHT22;10211;49.476;11.010;2023-07-20T11:06:32;37.40;39.30
16999;DHT22;10211;49.476;11.010;2023-07-20T11:09:09;38.00;40.10
16999;DHT22;10211;49.476;11.010;2023-07-20T11:11:41;37.70;39.20
16999;DHT22;10211;49.476;11.010;2023-07-20T11:14:09;38.40;38.60
16999;DHT22;10211;49.476;11.010;2023-07-20T11:16:41;38.30;38.50
16999;DHT22;10211;49.476;11.010;2023-07-20T11:19:16;38.10;38.10
16999;DHT22;10211;49.476;11.010;2023-07-20T11:21:44;37.80;38.50
16999;DHT22;10211;49.476;11.010;2023-07-20T11:24:13;36.80;40.30
16999;DHT22;10211;49.476;11.010;2023-07-20T11:26:41;36.90;40.30
16999;DHT22;10211;49.476;11.010;2023-07-20T11:29:07;35.10;41.50
16999;DHT22;10211;49.476;11.010;2023-07-20T11:31:36;35.60;42.80
16999;DHT22;10211;49.476;11.010;2023-07-20T11:34:03;37.40;42.20
16999;DHT22;10211;49.476;11.010;2023-07-20T11:36:29;38.20;39.40
16999;DHT22;10211;49.476;11.010;2023-07-20T11:38:57;37.70;40.10
16999;DHT22;10211;49.476;11.010;2023-07-20T11:41:26;37.60;39.70
16999;DHT22;10211;49.476;11.010;2023-07-20T11:43:54;37.60;40.00
16999;DHT22;10211;49.476;11.010;2023-07-20T11:46:20;35.30;40.70
16999;DHT22;10211;49.476;11.010;2023-07-20T11:48:47;33.30;43.30
16999;DHT22;10211;49.476;11.010;2023-07-20T11:51:14;33.70;42.90
16999;DHT22;10211;49.476;11.010;2023-07-20T11:53:43;34.70;41.80
16999;DHT22;10211;49.476;11.010;2023-07-20T11:56:10;35.70;38.60
16999;DHT22;10211;49.476;11.010;2023-07-20T11:58:43;36.50;36.90
16999;DHT22;10211;49.476;11.010;2023-07-20T12:01:11;37.00;38.20
16999;DHT22;10211;49.476;11.010;2023-07-20T12:03:38;36.80;36.40
16999;DHT22;10211;49.476;11.010;2023-07-20T12:06:08;36.10;36.10
16999;DHT22;10211;49.476;11.010;2023-07-20T12:08:38;34.40;37.90
16999;DHT22;10211;49.476;11.010;2023-07-20T12:11:04;34.30;37.70
16999;DHT22;10211;49.476;11.010;2023-07-20T12:13:38;34.30;38.70
16999;DHT22;10211;49.476;11.010;2023-07-20T12:16:13;34.20;39.00
16999;DHT22;10211;49.476;11.010;2023-07-20T12:18:40;34.70;39.40
16999;DHT22;10211;49.476;11.010;2023-07-20T12:21:07;34.00;39.30
16999;DHT22;10211;49.476;11.010;2023-07-20T12:23:35;34.20;40.90
16999;DHT22;10211;49.476;11.010;2023-07-20T12:26:02;35.00;40.80
16999;DHT22;10211;49.476;11.010;2023-07-20T12:28:31;35.40;39.20
16999;DHT22;10211;49.476;11.010;2023-07-20T12:30:58;35.80;37.60
16999;DHT22;10211;49.476;11.010;2023-07-20T12:33:26;36.20;39.60
16999;DHT22;10211;49.476;11.010;2023-07-20T12:35:53;35.90;38.80
16999;DHT22;10211;49.476;11.010;2023-07-20T12:38:21;35.70;39.10
16999;DHT22;10211;49.476;11.010;2023-07-20T12:40:48;34.90;39.70
16999;DHT22;10211;49.476;11.010;2023-07-20T12:43:15;34.80;40.00
16999;DHT22;10211;49.476;11.010;2023-07-20T12:45:42;34.80;39.30
16999;DHT22;10211;49.476;11.010;2023-07-20T12:48:08;34.90;38.80
16999;DHT22;10211;49.476;11.010;2023-07-20T12:50:36;34.50;40.20
16999;DHT22;10211;49.476;11.010;2023-07-20T12:53:04;33.80;41.90
16999;DHT22;10211;49.476;11.010;2023-07-20T12:55:31;32.90;43.10
16999;DHT22;10211;49.476;11.010;2023-07-20T12:57:58;33.00;43.40
16999;DHT22;10211;49.476;11.010;2023-07-20T13:00:25;33.30;43.50
16999;DHT22;10211;49.476;11.010;2023-07-20T13:02:52;32.40;42.90
16999;DHT22;10211;49.476;11.010;2023-07-20T13:05:18;31.00;45.70
16999;DHT22;10211;49.476;11.010;2023-07-20T13:07:46;30.00;47.50
16999;DHT22;10211;49.476;11.010;2023-07-20T13:10:13;29.60;47.60
16999;DHT22;10211;49.476;11.010;2023-07-20T13:12:40;29.50;48.40
16999;DHT22;10211;49.476;11.010;2023-07-20T13:15:08;29.30;47.90
16999;DHT22;10211;49.476;11.010;2023-07-20T13:17:36;28.80;48.40
16999;DHT22;10211;49.476;11.010;2023-07-20T13:20:05;28.30;47.80
16999;DHT22;10211;49.476;11.010;2023-07-20T13:22:33;27.90;48.70
16999;DHT22;10211;49.476;11.010;2023-07-20T13:25:02;27.50;49.30
16999;DHT22;10211;49.476;11.010;2023-07-20T13:27:29;27.00;49.70
16999;DHT22;10211;49.476;11.010;2023-07-20T13:29:57;27.00;51.10
16999;DHT22;10211;49.476;11.010;2023-07-20T13:32:24;27.10;49.00
16999;DHT22;10211;49.476;11.010;2023-07-20T13:34:50;27.30;49.90
16999;DHT22;10211;49.476;11.010;2023-07-20T13:37:17;27.50;50.00
16999;DHT22;10211;49.476;11.010;2023-07-20T13:39:44;27.60;50.60
16999;DHT22;10211;49.476;11.010;2023-07-20T13:42:12;27.80;49.70
16999;DHT22;10211;49.476;11.010;2023-07-20T13:44:39;27.70;49.60
16999;DHT22;10211;49.476;11.010;2023-07-20T13:47:06;27.90;49.20
16999;DHT22;10211;49.476;11.010;2023-07-20T13:49:33;27.90;47.60
16999;DHT22;10211;49.476;11.010;2023-07-20T13:51:59;27.90;47.50
16999;DHT22;10211;49.476;11.010;2023-07-20T13:54:26;27.80;47.90
16999;DHT22;10211;49.476;11.010;2023-07-20T13:56:53;27.60;47.90
16999;DHT22;10211;49.476;11.010;2023-07-20T13:59:21;27.30;48.90
16999;DHT22;10211;49.476;11.010;2023-07-20T14:01:47;27.00;49.80
16999;DHT22;10211;49.476;11.010;2023-07-20T14:04:14;26.90;50.50
16999;DHT22;10211;49.476;11.010;2023-07-20T14:06:42;27.00;50.70
16999;DHT22;10211;49.476;11.010;2023-07-20T14:09:09;27.20;48.40
16999;DHT22;10211;49.476;11.010;2023-07-20T14:11:36;27.30;49.00
16999;DHT22;10211;49.476;11.010;2023-07-20T14:14:02;27.30;49.20
16999;DHT22;10211;49.476;11.010;2023-07-20T14:16:31;26.80;49.90
16999;DHT22;10211;49.476;11.010;2023-07-20T14:18:58;26.40;50.00
16999;DHT22;10211;49.476;11.010;2023-07-20T14:21:25;26.50;51.00
16999;DHT22;10211;49.476;11.010;2023-07-20T14:23:52;26.80;49.50
16999;DHT22;10211;49.476;11.010;2023-07-20T14:26:19;27.10;50.00
16999;DHT22;10211;49.476;11.010;2023-07-20T14:28:47;27.40;49.60
16999;DHT22;10211;49.476;11.010;2023-07-20T14:31:13;27.50;49.60
16999;DHT22;10211;49.476;11.010;2023-07-20T14:33:41;27.70;50.50
16999;DHT22;10211;49.476;11.010;2023-07-20T14:36:08;27.60;49.30
16999;DHT22;10211;49.476;11.010;2023-07-20T14:38:35;27.60;50.20
16999;DHT22;10211;49.476;11.010;2023-07-20T14:41:02;27.50;49.30
16999;DHT22;10211;49.476;11.010;2023-07-20T14:43:29;27.60;49.10
16999;DHT22;10211;49.476;11.010;2023-07-20T14:45:55;27.70;49.20
16999;DHT22;10211;49.476;11.010;2023-07-20T14:48:22;27.90;49.40
16999;DHT22;10211;49.476;11.010;2023-07-20T14:50:50;27.80;49.70
16999;DHT22;10211;49.476;11.010;2023-07-20T14:53:17;27.90;48.90
16999;DHT22;10211;49.476;11.010;2023-07-20T14:55:43;27.90;47.80
16999;DHT22;10211;49.476;11.010;2023-07-20T14:58:10;27.90;48.90
16999;DHT22;10211;49.476;11.010;2023-07-20T15:00:37;27.90;48.60
16999;DHT22;10211;49.476;11.010;2023-07-20T15:03:04;27.70;49.70
16999;DHT22;10211;49.476;11.010;2023-07-20T15:05:31;27.30;49.00
16999;DHT22;10211;49.476;11.010;2023-07-20T15:08:00;26.90;50.30
16999;DHT22;10211;49.476;11.010;2023-07-20T15:10:26;26.60;50.70
16999;DHT22;10211;49.476;11.010;2023-07-20T15:12:53;26.20;51.80
16999;DHT22;10211;49.476;11.010;2023-07-20T15:15:20;26.10;52.80
16999;DHT22;10211;49.476;11.010;2023-07-20T15:17:46;26.20;52.30